Time;durP1;ratioP1;P1;durP2;ratioP2;P2;SDS_P1;SDS_P2;PMS_P1;PMS_P2;Temp;Humidity;BMP_temperature;BMP_pressure;BME280_temperature;BME280_humidity;BME280_pressure;Samples;Min_cycle;Max_cycle;Signal;HPM_P1;HPM_P2
2022/09/21 00:02:18;;;;;;;19.70;7.97;;;;;;;6.52;100.00;101746.78;7394810;19;20906;-59
2022/09/21 00:04:49;;;;;;;14.03;5.10;;;;;;;6.40;100.00;101748.44;7388998;19;20875;-56
2022/09/21 00:07:18;;;;;;;11.33;5.47;;;;;;;6.48;100.00;101755.03;7392248;19;20393;-52
2022/09/21 00:09:48;;;;;;;20.80;6.57;;;;;;;6.50;100.00;101757.72;7389155;19;20400;-55
2022/09/21 00:12:18;;;;;;;14.00;5.70;;;;;;;6.50;100.00;101755.16;7394522;19;20390;-53
2022/09/21 00:14:50;;;;;;;14.13;6.77;;;;;;;6.59;100.00;101753.25;7388576;19;20412;-52
2022/09/21 00:17:19;;;;;;;16.57;6.90;;;;;;;6.65;100.00;101752.81;7392762;19;20379;-58
2022/09/21 00:19:49;;;;;;;10.77;5.33;;;;;;;6.60;100.00;101749.91;7389605;19;20430;-53
2022/09/21 00:22:18;;;;;;;15.77;5.30;;;;;;;6.54;100.00;101754.56;7396723;19;20387;-56
2022/09/21 00:24:48;;;;;;;11.83;5.10;;;;;;;6.44;100.00;101750.44;7388074;19;20401;-55
2022/09/21 00:27:17;;;;;;;9.70;4.97;;;;;;;6.47;100.00;101750.69;7393585;19;20382;-58
2022/09/21 00:29:49;;;;;;;8.20;4.93;;;;;;;6.38;100.00;101762.78;7389634;19;20431;-56
2022/09/21 00:32:19;;;;;;;14.33;5.30;;;;;;;6.35;100.00;101754.09;7393804;19;20423;-51
2022/09/21 00:34:49;;;;;;;11.07;5.00;;;;;;;6.37;100.00;101758.44;7387945;19;20441;-52
2022/09/21 00:37:18;;;;;;;12.30;5.60;;;;;;;6.36;100.00;101754.97;7392389;19;20408;-59
2022/09/21 00:39:48;;;;;;;10.37;4.93;;;;;;;6.33;100.00;101755.66;7388569;19;20401;-54
2022/09/21 00:42:20;;;;;;;10.93;4.90;;;;;;;6.23;100.00;101753.19;7395914;19;20391;-51
2022/09/21 00:44:52;;;;;;;9.37;4.90;;;;;;;6.20;100.00;101758.97;7387567;19;20436;-55
2022/09/21 00:47:25;;;;;;;8.13;4.50;;;;;;;6.20;100.00;101758.97;7393166;19;20416;-54
2022/09/21 00:49:56;;;;;;;7.13;4.43;;;;;;;6.21;100.00;101759.88;7388792;19;20434;-53
2022/09/21 00:52:27;;;;;;;14.97;5.17;;;;;;;6.19;100.00;101756.28;7393168;19;20387;-55
2022/09/21 00:54:59;;;;;;;9.03;5.60;;;;;;;6.12;100.00;101754.94;7387968;19;20961;-54
2022/09/21 00:57:32;;;;;;;10.17;4.90;;;;;;;6.17;100.00;101762.97;7391545;19;20386;-54
2022/09/21 01:00:07;;;;;;;10.27;5.00;;;;;;;6.19;100.00;101766.53;7388795;19;20412;-55
2022/09/21 01:02:36;;;;;;;16.30;5.57;;;;;;;6.21;100.00;101771.00;7393018;19;20391;-55
2022/09/21 01:05:08;;;;;;;9.00;4.73;;;;;;;6.48;100.00;101775.53;7383857;19;20434;-60
2022/09/21 01:07:39;;;;;;;11.00;5.17;;;;;;;6.47;100.00;101773.75;7389520;19;20415;-57
2022/09/21 01:10:12;;;;;;;10.07;5.27;;;;;;;6.70;100.00;101772.88;7383757;19;20444;-61
2022/09/21 01:12:52;;;;;;;14.37;5.30;;;;;;;6.64;100.00;101767.31;7390055;19;20394;-53
2022/09/21 01:15:33;;;;;;;12.93;5.13;;;;;;;6.34;100.00;101767.72;7385938;19;20409;-52
2022/09/21 01:18:11;;;;;;;8.00;4.60;;;;;;;6.19;100.00;101763.97;7388716;19;20384;-58
2022/09/21 01:21:10;;;;;;;9.73;4.67;;;;;;;6.11;100.00;101768.53;7393826;19;20412;-49
2022/09/21 01:24:00;;;;;;;9.53;4.93;;;;;;;5.99;100.00;101771.00;7400668;19;20391;-58
2022/09/21 01:26:42;;;;;;;9.83;4.70;;;;;;;5.77;100.00;101782.16;7392477;19;20445;-56
2022/09/21 01:29:22;;;;;;;15.23;5.10;;;;;;;5.57;100.00;101782.25;7400097;19;20406;-51
2022/09/21 01:31:55;;;;;;;9.70;5.00;;;;;;;5.49;100.00;101787.66;7399318;19;20436;-54
2022/09/21 01:34:29;;;;;;;10.97;5.70;;;;;;;5.54;100.00;101791.50;7397303;19;20756;-58
2022/09/21 01:37:00;;;;;;;14.80;5.67;;;;;;;5.61;100.00;101794.53;7398913;19;20381;-53
2022/09/21 01:39:32;;;;;;;7.83;4.97;;;;;;;5.66;100.00;101803.47;7395503;19;20413;-53
2022/09/21 01:42:02;;;;;;;10.40;4.73;;;;;;;5.64;100.00;101789.66;7399305;19;20406;-54
2022/09/21 01:44:36;;;;;;;11.67;5.53;;;;;;;5.50;100.00;101792.00;7393545;19;20426;-51
2022/09/21 01:47:09;;;;;;;8.17;4.10;;;;;;;5.38;100.00;101794.50;7399518;19;20384;-51
2022/09/21 01:49:41;;;;;;;10.30;4.53;;;;;;;5.36;100.00;101801.19;7394682;19;21424;-59
2022/09/21 01:52:15;;;;;;;12.00;5.20;;;;;;;5.34;100.00;101799.25;7399392;19;20421;-59
2022/09/21 01:54:47;;;;;;;15.30;6.33;;;;;;;5.32;100.00;101800.81;7392170;19;20427;-59
2022/09/21 01:57:22;;;;;;;17.57;6.30;;;;;;;5.34;100.00;101806.94;7398433;19;20380;-59
2022/09/21 01:59:56;;;;;;;10.40;5.17;;;;;;;5.41;100.00;101804.09;7394192;19;20427;-60
2022/09/21 02:02:30;;;;;;;16.63;6.00;;;;;;;5.52;100.00;101805.84;7399242;19;20384;-53
2022/09/21 02:05:01;;;;;;;12.13;5.90;;;;;;;5.51;100.00;101805.72;7392457;19;20399;-56
2022/09/21 02:07:30;;;;;;;11.90;7.00;;;;;;;5.45;100.00;101813.81;7398627;19;20716;-51
2022/09/21 02:10:00;;;;;;;14.97;6.80;;;;;;;5.46;100.00;101817.25;7392417;19;20431;-52
2022/09/21 02:12:31;;;;;;;20.53;6.60;;;;;;;5.57;100.00;101820.66;7398629;19;20755;-58
2022/09/21 02:15:03;;;;;;;10.43;6.93;;;;;;;5.60;100.00;101818.34;7392522;19;20425;-57
2022/09/21 02:17:38;;;;;;;12.70;7.60;;;;;;;5.51;100.00;101829.66;7397148;19;20394;-56
2022/09/21 02:20:18;;;;;;;13.27;7.00;;;;;;;5.53;100.00;101825.56;7393713;19;20943;-53
2022/09/21 02:22:59;;;;;;;12.57;6.20;;;;;;;5.56;100.00;101834.25;7398753;19;20385;-58
2022/09/21 02:25:36;;;;;;;12.07;6.13;;;;;;;5.47;100.00;101832.75;7391184;19;20395;-57
2022/09/21 02:28:09;;;;;;;9.33;5.57;;;;;;;5.46;100.00;101833.53;7398203;19;20396;-55
2022/09/21 02:30:43;;;;;;;12.53;6.73;;;;;;;5.47;100.00;101837.88;7389606;19;20416;-59
2022/09/21 02:33:14;;;;;;;13.07;6.03;;;;;;;5.52;100.00;101841.69;7398061;19;20923;-55
2022/09/21 02:35:47;;;;;;;14.93;6.80;;;;;;;5.53;100.00;101838.34;7391822;19;20753;-54
2022/09/21 02:38:20;;;;;;;15.83;7.40;;;;;;;5.58;100.00;101835.28;7396551;19;20747;-55
2022/09/21 02:40:55;;;;;;;17.73;8.13;;;;;;;5.62;100.00;101835.63;7393140;19;20436;-57
2022/09/21 02:43:27;;;;;;;14.83;8.53;;;;;;;5.69;100.00;101834.44;7396721;19;20384;-52
2022/09/21 02:46:03;;;;;;;13.43;6.40;;;;;;;5.68;100.00;101835.22;7392003;19;20404;-54
2022/09/21 02:48:36;;;;;;;10.93;6.27;;;;;;;5.63;100.00;101839.06;7397352;19;20389;-53
2022/09/21 02:51:08;;;;;;;24.43;10.27;;;;;;;7.15;100.00;101830.03;7392769;19;20432;-54
2022/09/21 02:53:40;;;;;;;32.33;16.77;;;;;;;7.23;100.00;101822.88;7396225;19;20390;-53
2022/09/21 02:56:10;;;;;;;58.10;30.33;;;;;;;7.29;100.00;101813.06;7392722;19;20415;-56
2022/09/21 02:58:41;;;;;;;20.40;12.83;;;;;;;7.21;100.00;101808.13;7395624;19;20410;-53
2022/09/21 03:01:15;;;;;;;22.83;12.47;;;;;;;7.01;100.00;101799.91;7392503;19;20437;-56
2022/09/21 03:03:44;;;;;;;19.40;10.47;;;;;;;7.27;100.00;101781.25;7395710;19;21143;-52
2022/09/21 03:06:14;;;;;;;14.60;7.10;;;;;;;7.49;100.00;101771.63;7392145;19;20429;-54
2022/09/21 03:08:43;;;;;;;9.07;5.90;;;;;;;7.42;100.00;101762.56;7396719;19;20852;-53
2022/09/21 03:11:13;;;;;;;8.97;5.53;;;;;;;7.15;100.00;101775.25;7391494;19;20415;-52
2022/09/21 03:13:43;;;;;;;9.20;5.93;;;;;;;6.85;100.00;101783.41;7395407;19;20416;-61
2022/09/21 03:16:15;;;;;;;10.50;6.07;;;;;;;6.54;100.00;101786.25;7392420;19;20440;-57
2022/09/21 03:18:44;;;;;;;8.90;5.77;;;;;;;6.48;100.00;101793.47;7395025;19;20403;-57
2022/09/21 03:21:14;;;;;;;9.00;6.40;;;;;;;5.94;100.00;101806.53;7392172;19;20417;-58
2022/09/21 03:23:43;;;;;;;9.03;5.70;;;;;;;5.45;100.00;101823.16;7397537;19;20401;-53
2022/09/21 03:26:13;;;;;;;11.27;5.03;;;;;;;5.74;100.00;101822.00;7391396;19;20425;-54
2022/09/21 03:28:42;;;;;;;11.17;6.70;;;;;;;5.89;100.00;101825.75;7398338;19;20385;-54
2022/09/21 03:31:14;;;;;;;9.00;5.40;;;;;;;5.76;100.00;101835.81;7390900;19;20417;-59
2022/09/21 03:33:44;;;;;;;7.40;5.50;;;;;;;5.35;100.00;101847.13;7394785;19;20396;-55
2022/09/21 03:36:14;;;;;;;10.60;5.33;;;;;;;5.08;100.00;101868.03;7391054;19;20945;-56
2022/09/21 03:38:44;;;;;;;12.50;5.97;;;;;;;5.17;100.00;101877.25;7394704;19;20422;-55
2022/09/21 03:41:14;;;;;;;15.60;6.50;;;;;;;5.46;100.00;101882.16;7391183;19;20416;-54
2022/09/21 03:43:43;;;;;;;29.80;7.27;;;;;;;5.53;100.00;101879.31;7394130;19;20405;-53
2022/09/21 03:46:15;;;;;;;15.57;6.23;;;;;;;5.80;100.00;101887.41;7390610;19;20427;-59
2022/09/21 03:48:46;;;;;;;21.73;8.17;;;;;;;5.94;100.00;101880.81;7395411;19;20452;-55
2022/09/21 03:51:16;;;;;;;14.23;6.20;;;;;;;5.95;100.00;101879.16;7391192;19;20416;-56
2022/09/21 03:53:45;;;;;;;28.00;13.70;;;;;;;5.80;100.00;101884.84;7394223;19;20404;-56
2022/09/21 03:56:14;;;;;;;13.30;7.70;;;;;;;5.42;100.00;101895.47;7389621;19;20407;-57
2022/09/21 03:58:44;;;;;;;14.60;7.97;;;;;;;5.19;100.00;101898.72;7394162;19;20392;-54
2022/09/21 04:01:16;;;;;;;21.93;5.90;;;;;;;5.48;100.00;101895.97;7390240;19;20439;-57
2022/09/21 04:03:45;;;;;;;11.00;7.63;;;;;;;5.70;100.00;101897.72;7393989;19;20396;-58
2022/09/21 04:06:15;;;;;;;9.37;6.50;;;;;;;5.65;100.00;101899.00;7391009;19;20431;-53
2022/09/21 04:08:44;;;;;;;8.73;6.17;;;;;;;5.16;100.00;101896.81;7394662;19;20425;-58
2022/09/21 04:11:16;;;;;;;8.03;5.70;;;;;;;5.25;100.00;101895.00;7388856;19;20415;-54
2022/09/21 04:13:45;;;;;;;8.57;5.90;;;;;;;5.37;100.00;101902.78;7393442;19;20385;-51
2022/09/21 04:16:17;;;;;;;8.13;6.50;;;;;;;5.21;100.00;101899.72;7389924;19;20411;-59
2022/09/21 04:18:49;;;;;;;8.77;5.77;;;;;;;5.30;100.00;101899.59;7393718;19;20879;-56
2022/09/21 04:21:18;;;;;;;8.83;6.43;;;;;;;5.13;100.00;101901.69;7389903;19;20403;-59
2022/09/21 04:23:48;;;;;;;8.37;5.97;;;;;;;5.34;100.00;101901.63;7393029;19;20388;-55
2022/09/21 04:26:22;;;;;;;10.57;6.40;;;;;;;5.49;100.00;101902.00;7389513;19;20772;-57
2022/09/21 04:28:51;;;;;;;10.47;6.47;;;;;;;5.72;100.00;101901.28;7394119;19;20387;-58
2022/09/21 04:31:24;;;;;;;13.77;6.60;;;;;;;5.44;100.00;101899.03;7389281;19;20420;-52
2022/09/21 04:33:55;;;;;;;11.70;6.60;;;;;;;5.13;100.00;101897.44;7393290;19;20387;-59
2022/09/21 04:36:26;;;;;;;9.70;6.10;;;;;;;5.52;100.00;101886.88;7389757;19;20431;-53
2022/09/21 04:38:55;;;;;;;11.60;6.50;;;;;;;5.42;100.00;101894.59;7393073;19;20401;-53
2022/09/21 04:41:24;;;;;;;9.33;6.20;;;;;;;5.48;100.00;101895.97;7389583;19;20407;-60
2022/09/21 04:43:54;;;;;;;12.10;6.60;;;;;;;5.30;100.00;101892.81;7392497;19;20379;-52
2022/09/21 04:46:26;;;;;;;9.80;5.97;;;;;;;5.41;100.00;101893.69;7389241;19;20452;-58
2022/09/21 04:48:55;;;;;;;9.80;6.57;;;;;;;5.53;100.00;101889.56;7393480;19;20408;-59
2022/09/21 04:51:25;;;;;;;10.57;6.67;;;;;;;5.31;100.00;101903.94;7388919;19;20415;-49
2022/09/21 04:53:54;;;;;;;10.77;5.87;;;;;;;5.64;100.00;101899.78;7391052;19;20935;-53
2022/09/21 04:56:24;;;;;;;10.93;6.60;;;;;;;5.43;100.00;101901.50;7388628;19;20407;-62
2022/09/21 04:58:53;;;;;;;11.97;6.13;;;;;;;5.34;100.00;101907.63;7392614;19;20404;-53
2022/09/21 05:01:26;;;;;;;15.23;7.10;;;;;;;5.28;100.00;101917.38;7388851;19;20434;-51
2022/09/21 05:04:00;;;;;;;8.43;5.77;;;;;;;5.29;100.00;101924.31;7391892;19;20380;-52
2022/09/21 05:06:30;;;;;;;12.80;6.37;;;;;;;5.14;100.00;101931.63;7390307;19;20439;-53
2022/09/21 05:11:42;;;;;;;10.17;6.27;;;;;;;4.49;100.00;101956.84;7386955;19;20411;-57
2022/09/21 05:14:12;;;;;;;14.07;6.57;;;;;;;4.99;100.00;101959.38;7395829;19;20427;-49
2022/09/21 05:16:46;;;;;;;9.50;6.37;;;;;;;4.95;100.00;101963.34;7390747;19;20431;-51
2022/09/21 05:19:15;;;;;;;13.17;7.33;;;;;;;5.13;100.00;101957.97;7392223;19;20387;-58
2022/09/21 05:21:45;;;;;;;13.10;6.90;;;;;;;5.34;100.00;101963.06;7393047;19;20808;-53
2022/09/21 05:24:15;;;;;;;12.60;7.00;;;;;;;5.58;100.00;101971.84;7391180;19;20420;-58
2022/09/21 05:26:44;;;;;;;10.80;6.33;;;;;;;5.51;100.00;101978.16;7391462;19;20435;-54
2022/09/21 05:29:14;;;;;;;11.27;6.80;;;;;;;5.45;100.00;101980.22;7392472;19;20387;-55
2022/09/21 05:31:50;;;;;;;12.20;7.50;;;;;;;4.98;100.00;101983.16;7391537;19;20418;-51
2022/09/21 05:34:38;;;;;;;12.50;6.40;;;;;;;4.79;100.00;101990.94;7386814;19;20421;-57
2022/09/21 05:37:14;;;;;;;10.20;6.90;;;;;;;5.04;100.00;101998.13;7395770;19;20416;-53
2022/09/21 05:39:44;;;;;;;11.20;6.60;;;;;;;5.33;100.00;101992.88;7386781;19;21032;-51
2022/09/21 05:42:14;;;;;;;11.57;6.43;;;;;;;5.45;100.00;102000.69;7391913;19;20412;-55
2022/09/21 05:44:44;;;;;;;11.53;6.90;;;;;;;5.30;100.00;102012.19;7385441;19;20415;-56
2022/09/21 05:47:24;;;;;;;13.33;6.53;;;;;;;4.80;100.00;102015.72;7391969;19;20379;-57
2022/09/21 05:50:00;;;;;;;17.60;6.97;;;;;;;4.58;100.00;102029.25;7386762;19;20461;-51
2022/09/21 05:52:37;;;;;;;9.67;6.80;;;;;;;4.54;100.00;102025.53;7391968;19;20388;-59
2022/09/21 05:55:21;;;;;;;15.07;7.07;;;;;;;4.49;100.00;102030.97;7385465;19;20403;-59
2022/09/21 05:57:56;;;;;;;9.50;6.57;;;;;;;4.52;100.00;102034.69;7391316;19;20903;-59
2022/09/21 06:00:26;;;;;;;13.17;7.70;;;;;;;4.53;100.00;102035.59;7386426;19;20438;-57
2022/09/21 06:03:09;;;;;;;20.93;10.90;;;;;;;4.76;100.00;102041.81;7391728;19;20384;-60
2022/09/21 06:05:45;;;;;;;16.27;9.17;;;;;;;4.63;100.00;102053.56;7388206;19;20406;-55
2022/09/21 06:08:15;;;;;;;13.80;8.93;;;;;;;4.57;100.00;102047.91;7398695;19;20392;-53
2022/09/21 06:10:44;;;;;;;11.47;7.87;;;;;;;4.51;100.00;102045.69;7393020;19;20423;-54
2022/09/21 06:13:13;;;;;;;15.30;9.40;;;;;;;4.61;100.00;102046.50;7398330;19;20383;-53
2022/09/21 06:15:43;;;;;;;32.33;16.00;;;;;;;4.83;100.00;102045.00;7392336;19;20403;-53
2022/09/21 06:18:15;;;;;;;22.90;11.40;;;;;;;4.89;100.00;102059.09;7398393;19;20411;-57
2022/09/21 06:20:46;;;;;;;21.30;11.60;;;;;;;4.96;100.00;102059.78;7393451;19;20525;-56
2022/09/21 06:23:16;;;;;;;20.37;11.63;;;;;;;4.93;100.00;102056.94;7397718;19;21195;-57
2022/09/21 06:25:45;;;;;;;19.57;10.60;;;;;;;4.99;100.00;102062.56;7391743;19;20440;-53
2022/09/21 06:28:15;;;;;;;16.00;10.20;;;;;;;5.10;100.00;102057.47;7397928;19;20396;-56
2022/09/21 06:30:44;;;;;;;19.10;9.50;;;;;;;5.22;100.00;102063.63;7392590;19;20461;-56
2022/09/21 06:33:19;;;;;;;22.20;10.60;;;;;;;5.29;100.00;102064.16;7401531;19;20484;-57
2022/09/21 06:35:54;;;;;;;15.50;9.53;;;;;;;5.34;100.00;102058.66;7391931;19;20431;-51
2022/09/21 06:38:24;;;;;;;25.07;12.00;;;;;;;5.38;100.00;102065.81;7399546;19;20752;-54
2022/09/21 06:40:54;;;;;;;21.40;10.37;;;;;;;5.50;100.00;102060.81;7392225;19;20407;-57
2022/09/21 06:43:23;;;;;;;17.40;10.30;;;;;;;5.80;100.00;102058.13;7396876;19;20383;-52
2022/09/21 06:45:57;;;;;;;17.40;11.23;;;;;;;5.99;100.00;102060.50;7391785;19;20950;-56
2022/09/21 06:48:31;;;;;;;16.97;10.50;;;;;;;5.92;100.00;102056.56;7396846;19;20373;-54
2022/09/21 06:51:00;;;;;;;16.83;10.43;;;;;;;5.93;100.00;102062.56;7392727;19;20461;-58
2022/09/21 06:53:31;;;;;;;20.60;11.40;;;;;;;6.21;100.00;102067.44;7396306;19;20755;-54
2022/09/21 06:56:04;;;;;;;18.63;10.27;;;;;;;6.59;100.00;102061.91;7391498;19;20477;-57
2022/09/21 06:58:34;;;;;;;15.60;10.40;;;;;;;6.54;100.00;102073.44;7396717;19;20420;-56
2022/09/21 07:01:07;;;;;;;16.10;9.80;;;;;;;6.59;100.00;102066.13;7390011;19;20453;-55
2022/09/21 07:03:41;;;;;;;16.90;9.57;;;;;;;6.61;100.00;102067.13;7397054;19;20391;-55
2022/09/21 07:06:14;;;;;;;33.80;20.17;;;;;;;6.88;100.00;102076.09;7395020;19;20445;-52
2022/09/21 07:08:44;;;;;;;94.80;51.77;;;;;;;7.33;100.00;102070.91;7396520;19;20392;-56
2022/09/21 07:11:34;;;;;;;93.00;50.33;;;;;;;7.76;100.00;102067.22;7388006;19;21000;-57
2022/09/21 07:14:04;;;;;;;51.20;30.33;;;;;;;8.02;100.00;102070.81;7395082;19;20397;-58
2022/09/21 07:16:33;;;;;;;22.57;13.30;;;;;;;8.11;100.00;102068.94;7390774;19;20414;-61
2022/09/21 07:19:06;;;;;;;19.10;10.60;;;;;;;7.82;100.00;102065.09;7396193;19;20384;-55
2022/09/21 07:21:39;;;;;;;12.90;8.90;;;;;;;7.74;100.00;102068.78;7389300;19;20446;-54
2022/09/21 07:24:09;;;;;;;19.17;8.73;;;;;;;7.55;100.00;102070.00;7398048;19;20431;-51
2022/09/21 07:26:40;;;;;;;14.00;9.47;;;;;;;7.53;100.00;102080.13;7391226;19;20760;-57
2022/09/21 07:29:10;;;;;;;10.70;8.70;;;;;;;7.55;100.00;102083.72;7398053;19;20485;-57
2022/09/21 07:31:40;;;;;;;14.43;9.17;;;;;;;7.64;100.00;102101.47;7393080;19;20467;-58
2022/09/21 07:34:12;;;;;;;12.67;9.33;;;;;;;7.67;100.00;102099.16;7394362;19;20919;-56
2022/09/21 07:36:41;;;;;;;14.63;10.03;;;;;;;7.76;100.00;102104.09;7390868;19;20418;-60
2022/09/21 07:39:11;;;;;;;14.30;10.80;;;;;;;7.87;100.00;102107.47;7399455;19;20757;-57
2022/09/21 07:41:41;;;;;;;16.60;9.97;;;;;;;7.89;100.00;102113.59;7389057;19;20427;-61
2022/09/21 07:44:10;;;;;;;21.90;11.07;;;;;;;8.00;100.00;102114.38;7393996;19;20416;-56
2022/09/21 07:46:40;;;;;;;31.80;17.27;;;;;;;8.12;100.00;102124.72;7390250;19;20435;-52
2022/09/21 07:49:19;;;;;;;25.43;15.23;;;;;;;8.26;100.00;102122.25;7395336;19;20384;-52
2022/09/21 07:51:48;;;;;;;24.13;11.43;;;;;;;8.36;100.00;102124.72;7394288;19;20450;-55
2022/09/21 07:54:17;;;;;;;19.63;11.00;;;;;;;8.47;100.00;102128.06;7393681;19;20439;-58
2022/09/21 07:59:04;;;;;;;19.87;11.53;;;;;;;8.56;100.00;102127.88;7394528;19;20405;-58
2022/09/21 07:59:34;;;;;;;22.40;12.10;;;;;;;8.71;100.00;102121.22;7390605;19;20392;-56
2022/09/21 08:02:03;;;;;;;15.63;10.00;;;;;;;8.84;100.00;102124.69;7392720;19;20939;-55
2022/09/21 08:04:35;;;;;;;17.13;10.17;;;;;;;8.89;100.00;102124.22;7389134;19;20423;-54
2022/09/21 08:07:05;;;;;;;16.67;8.77;;;;;;;9.00;100.00;102119.84;7394445;19;20931;-53
2022/09/21 08:09:34;;;;;;;18.43;9.07;;;;;;;9.12;100.00;102132.66;7388522;19;20387;-59
2022/09/21 08:12:04;;;;;;;11.60;8.03;;;;;;;9.22;100.00;102129.03;7393744;19;20424;-56
2022/09/21 08:14:34;;;;;;;17.80;8.33;;;;;;;9.35;100.00;102129.88;7388958;19;20437;-57
2022/09/21 08:17:04;;;;;;;10.50;7.30;;;;;;;9.47;100.00;102130.72;7394284;19;21067;-54
2022/09/21 08:19:36;;;;;;;28.27;11.03;;;;;;;9.59;100.00;102136.72;7389345;19;20749;-48
2022/09/21 08:22:06;;;;;;;7.97;5.30;;;;;;;9.71;100.00;102140.91;7392227;19;20384;-56
2022/09/21 08:24:36;;;;;;;11.50;4.33;;;;;;;9.81;100.00;102139.84;7388445;19;20411;-55
2022/09/21 08:27:07;;;;;;;22.63;8.77;;;;;;;9.95;100.00;102143.34;7393945;19;20391;-49
2022/09/21 08:29:37;;;;;;;7.83;3.67;;;;;;;10.08;100.00;102147.63;7387619;19;20407;-55
2022/09/21 08:32:07;;;;;;;8.57;5.57;;;;;;;10.21;100.00;102154.50;7393362;19;20917;-54
2022/09/21 08:34:39;;;;;;;13.20;6.87;;;;;;;10.35;100.00;102156.28;7388288;19;20411;-51
2022/09/21 08:37:08;;;;;;;7.20;4.90;;;;;;;10.43;100.00;102172.31;7393541;19;20403;-52
2022/09/21 08:39:39;;;;;;;13.70;5.93;;;;;;;10.59;100.00;102181.94;7389371;19;20401;-51
2022/09/21 08:42:32;;;;;;;17.43;6.93;;;;;;;10.74;100.00;102189.75;7391855;19;20380;-59
2022/09/21 08:45:05;;;;;;;9.13;4.17;;;;;;;10.86;100.00;102201.69;7385431;19;20404;-53
2022/09/21 08:47:42;;;;;;;13.03;6.77;;;;;;;11.01;100.00;102206.91;7391689;19;20785;-55
2022/09/21 08:50:30;;;;;;;11.63;3.70;;;;;;;11.09;100.00;102208.28;7388327;19;20992;-53
2022/09/21 08:53:03;;;;;;;11.00;3.80;;;;;;;11.17;100.00;102207.06;7393274;19;20423;-57
2022/09/21 08:55:33;;;;;;;7.53;3.20;;;;;;;11.23;100.00;102206.53;7386950;19;20633;-61
2022/09/21 08:58:02;;;;;;;23.43;5.73;;;;;;;11.33;100.00;102223.50;7392581;19;20388;-52
2022/09/21 09:00:36;;;;;;;5.03;2.70;;;;;;;11.45;100.00;102228.56;7388232;19;20790;-53
2022/09/21 09:03:18;;;;;;;5.37;3.00;;;;;;;11.61;100.00;102232.97;7392876;19;20375;-51
2022/09/21 09:05:54;;;;;;;3.50;2.17;;;;;;;11.71;100.00;102243.09;7386835;19;20414;-53
2022/09/21 09:08:47;;;;;;;11.20;3.60;;;;;;;11.80;100.00;102242.72;7392910;19;20386;-54
2022/09/21 09:11:26;;;;;;;6.90;3.27;;;;;;;11.92;100.00;102252.94;7387251;19;20433;-57
2022/09/21 09:14:13;;;;;;;4.90;2.00;;;;;;;12.07;100.00;102262.44;7393259;19;20401;-55
2022/09/21 09:16:49;;;;;;;7.60;2.80;;;;;;;12.13;100.00;102258.53;7386948;19;20409;-50
2022/09/21 09:19:23;;;;;;;4.33;1.67;;;;;;;12.23;100.00;102270.34;7388695;19;20391;-62
2022/09/21 09:21:56;;;;;;;9.60;4.50;;;;;;;12.35;100.00;102290.84;7390937;19;20411;-53
2022/09/21 09:24:34;;;;;;;4.87;2.43;;;;;;;12.50;100.00;102289.97;7386198;19;20411;-56
2022/09/21 09:27:07;;;;;;;3.57;1.67;;;;;;;12.63;100.00;102297.66;7395641;19;20913;-54
2022/09/21 09:29:43;;;;;;;6.67;2.67;;;;;;;12.53;100.00;102304.00;7387766;19;20941;-57
2022/09/21 09:32:16;;;;;;;5.63;2.03;;;;;;;12.66;100.00;102318.53;7392055;19;20406;-58
2022/09/21 09:34:47;;;;;;;2.57;1.20;;;;;;;12.78;100.00;102333.88;7386079;19;20411;-61
2022/09/21 09:37:19;;;;;;;7.37;3.17;;;;;;;12.78;100.00;102339.06;7392235;19;20394;-51
2022/09/21 09:39:56;;;;;;;3.70;1.90;;;;;;;12.86;100.00;102346.41;7389387;19;20745;-53
2022/09/21 09:42:34;;;;;;;2.93;1.43;;;;;;;13.04;100.00;102357.81;7397499;19;20383;-54
2022/09/21 09:45:31;;;;;;;3.43;1.27;;;;;;;13.09;100.00;102371.03;7392455;19;20406;-58
2022/09/21 09:48:25;;;;;;;6.60;2.00;;;;;;;13.28;100.00;102367.78;7398977;19;20387;-58
2022/09/21 09:50:54;;;;;;;6.00;2.70;;;;;;;13.12;100.00;102375.50;7394547;19;20431;-48
2022/09/21 09:53:27;;;;;;;5.67;1.50;;;;;;;13.22;100.00;102372.59;7398649;19;20392;-56
2022/09/21 09:55:59;;;;;;;3.10;1.30;;;;;;;13.44;100.00;102366.94;7392973;19;20436;-59
2022/09/21 09:58:36;;;;;;;5.93;2.93;;;;;;;13.56;100.00;102359.00;7398939;19;20419;-55
2022/09/21 10:01:06;;;;;;;4.40;1.83;;;;;;;13.36;100.00;102361.34;7393633;19;20418;-57
2022/09/21 10:03:37;;;;;;;5.10;1.90;;;;;;;13.27;100.00;102381.53;7398259;19;20392;-53
2022/09/21 10:06:07;;;;;;;3.40;1.50;;;;;;;13.51;100.00;102381.19;7393809;19;20408;-58
2022/09/21 10:08:47;;;;;;;3.70;1.40;;;;;;;13.74;100.00;102390.22;7398539;19;20418;-59
2022/09/21 10:11:17;;;;;;;2.03;0.70;;;;;;;13.88;100.00;102388.38;7393577;19;20791;-61
2022/09/21 10:13:48;;;;;;;2.50;1.17;;;;;;;13.98;100.00;102394.06;7397264;19;20720;-51
2022/09/21 10:16:21;;;;;;;3.00;1.10;;;;;;;13.96;100.00;102411.25;7393320;19;20439;-55
2022/09/21 10:18:55;;;;;;;8.80;4.60;;;;;;;14.07;100.00;102420.53;7398182;19;20457;-56
2022/09/21 10:21:26;;;;;;;3.90;1.63;;;;;;;13.77;100.00;102420.63;7393075;19;20423;-59
2022/09/21 10:24:00;;;;;;;2.63;1.17;;;;;;;13.79;100.00;102419.00;7396815;19;20387;-51
2022/09/21 10:26:33;;;;;;;7.23;3.03;;;;;;;13.96;100.00;102406.97;7393286;19;20412;-55
2022/09/21 10:29:04;;;;;;;3.30;1.37;;;;;;;14.10;100.00;102409.41;7397739;19;20759;-56
2022/09/21 10:31:35;;;;;;;6.03;2.87;;;;;;;14.29;100.00;102429.44;7391074;19;20434;-61
2022/09/21 10:34:14;;;;;;;4.13;1.07;;;;;;;14.43;100.00;102451.84;7396139;19;20401;-58
2022/09/21 10:36:51;;;;;;;1.97;0.63;;;;;;;14.57;100.00;102462.94;7397493;19;20415;-56
2022/09/21 10:39:26;;;;;;;1.50;0.40;;;;;;;14.63;100.00;102503.97;7397620;19;20767;-57
2022/09/21 10:41:59;;;;;;;2.23;0.83;;;;;;;14.63;100.00;102521.22;7396441;19;20782;-57
2022/09/21 10:44:31;;;;;;;3.33;1.20;;;;;;;14.74;100.00;102521.78;7390942;19;20432;-54
2022/09/21 10:47:05;;;;;;;6.00;2.87;;;;;;;14.80;100.00;102514.34;7397089;19;20918;-56
2022/09/21 10:49:35;;;;;;;2.60;0.87;;;;;;;15.02;100.00;102518.09;7392259;19;20383;-54
2022/09/21 10:52:05;;;;;;;8.50;4.03;;;;;;;15.14;100.00;102523.91;7395106;19;20951;-52
2022/09/21 10:54:37;;;;;;;11.27;3.87;;;;;;;15.22;100.00;102514.78;7391707;19;20456;-59
2022/09/21 10:57:10;;;;;;;3.13;1.40;;;;;;;15.30;100.00;102501.28;7396876;19;20416;-57
2022/09/21 10:59:39;;;;;;;7.50;2.73;;;;;;;15.30;100.00;102527.28;7392240;19;20770;-60
2022/09/21 11:02:37;;;;;;;7.57;2.47;;;;;;;15.40;100.00;102555.53;7395652;19;20929;-56
2022/09/21 11:05:13;;;;;;;3.30;1.63;;;;;;;15.47;100.00;102567.13;7391667;19;20442;-56
2022/09/21 11:07:47;;;;;;;7.97;3.50;;;;;;;15.61;100.00;102549.63;7396740;19;20407;-55
2022/09/21 11:10:23;;;;;;;2.83;1.03;;;;;;;15.07;100.00;102586.81;7390486;19;20803;-57
2022/09/21 11:13:04;;;;;;;4.17;1.27;;;;;;;15.12;100.00;102587.91;7396635;19;20372;-57
2022/09/21 11:15:45;;;;;;;2.90;1.00;;;;;;;15.36;100.00;102569.19;7390192;19;20419;-52
2022/09/21 11:18:20;;;;;;;3.67;1.30;;;;;;;15.43;100.00;102550.47;7398062;19;20402;-61
2022/09/21 11:20:52;;;;;;;2.50;0.90;;;;;;;15.32;100.00;102565.53;7392938;19;20399;-52
2022/09/21 11:23:32;;;;;;;3.63;1.27;;;;;;;15.53;100.00;102555.34;7397644;19;20384;-53
2022/09/21 11:26:11;;;;;;;2.10;0.83;;;;;;;15.78;100.00;102558.25;7390000;19;20432;-59
2022/09/21 11:28:45;;;;;;;3.27;1.30;;;;;;;15.87;100.00;102539.59;7395820;19;20901;-54
2022/09/21 11:31:31;;;;;;;4.17;0.63;;;;;;;15.76;100.00;102550.38;7391086;19;20441;-60
2022/09/21 11:34:12;;;;;;;2.57;0.77;;;;;;;15.91;100.00;102557.16;7394188;19;20404;-56
2022/09/21 11:36:51;;;;;;;3.00;0.80;;;;;;;15.85;100.00;102569.88;7390863;19;20417;-54
2022/09/21 11:39:29;;;;;;;18.27;7.77;;;;;;;15.91;100.00;102564.97;7395310;19;20922;-58
2022/09/21 11:42:10;;;;;;;3.57;0.97;;;;;;;15.92;100.00;102571.97;7395359;19;20386;-58
2022/09/21 11:44:48;;;;;;;75.07;32.37;;;;;;;15.78;100.00;102585.19;7389441;19;20432;-57
2022/09/21 11:47:37;;;;;;;3.93;1.80;;;;;;;15.89;100.00;102583.09;7395135;19;20389;-55